sensor_id;sensor_type;location;lat;lon;timestamp;P1;durP1;ratioP1;P2;durP2;ratioP2
6979;SDS011;3530;52.832;10.680;2023-04-24T00:01:01;2.80;;;2.65;;
6979;SDS011;3530;52.832;10.680;2023-04-24T00:03:47;3.10;;;2.90;;
6979;SDS011;3530;52.832;10.680;2023-04-24T00:06:33;3.67;;;3.45;;
6979;SDS011;3530;52.832;10.680;2023-04-24T00:09:19;3.08;;;2.75;;
6979;SDS011;3530;52.832;10.680;2023-04-24T00:12:04;3.05;;;2.85;;
6979;SDS011;3530;52.832;10.680;2023-04-24T00:14:50;3.40;;;3.20;;
6979;SDS011;3530;52.832;10.680;2023-04-24T00:17:36;3.00;;;2.80;;
6979;SDS011;3530;52.832;10.680;2023-04-24T00:20:21;3.00;;;2.80;;
6979;SDS011;3530;52.832;10.680;2023-04-24T00:23:07;2.95;;;2.50;;
6979;SDS011;3530;52.832;10.680;2023-04-24T00:25:53;2.92;;;2.72;;
6979;SDS011;3530;52.832;10.680;2023-04-24T00:28:39;2.67;;;2.47;;
6979;SDS011;3530;52.832;10.680;2023-04-24T00:31:25;3.60;;;2.72;;
6979;SDS011;3530;52.832;10.680;2023-04-24T00:34:10;4.55;;;2.65;;
6979;SDS011;3530;52.832;10.680;2023-04-24T00:36:57;2.67;;;2.55;;
6979;SDS011;3530;52.832;10.680;2023-04-24T00:39:42;2.92;;;2.72;;
6979;SDS011;3530;52.832;10.680;2023-04-24T00:42:28;3.25;;;3.05;;
6979;SDS011;3530;52.832;10.680;2023-04-24T00:45:14;3.17;;;2.97;;
6979;SDS011;3530;52.832;10.680;2023-04-24T00:48:00;2.97;;;2.78;;
6979;SDS011;3530;52.832;10.680;2023-04-24T00:50:45;2.72;;;2.63;;
6979;SDS011;3530;52.832;10.680;2023-04-24T00:53:31;2.83;;;2.72;;
6979;SDS011;3530;52.832;10.680;2023-04-24T00:56:18;2.63;;;2.53;;
6979;SDS011;3530;52.832;10.680;2023-04-24T00:59:03;2.70;;;2.50;;
6979;SDS011;3530;52.832;10.680;2023-04-24T01:01:50;2.55;;;2.45;;
6979;SDS011;3530;52.832;10.680;2023-04-24T01:04:36;2.30;;;2.20;;
6979;SDS011;3530;52.832;10.680;2023-04-24T01:07:22;2.33;;;2.22;;
6979;SDS011;3530;52.832;10.680;2023-04-24T01:10:08;2.10;;;2.05;;
6979;SDS011;3530;52.832;10.680;2023-04-24T01:12:54;2.13;;;2.03;;
6979;SDS011;3530;52.832;10.680;2023-04-24T01:15:39;2.53;;;2.38;;
6979;SDS011;3530;52.832;10.680;2023-04-24T01:18:26;2.03;;;2.00;;
6979;SDS011;3530;52.832;10.680;2023-04-24T01:21:13;2.42;;;2.10;;
6979;SDS011;3530;52.832;10.680;2023-04-24T01:24:01;2.83;;;1.92;;
6979;SDS011;3530;52.832;10.680;2023-04-24T01:26:47;2.95;;;2.10;;
6979;SDS011;3530;52.832;10.680;2023-04-24T01:29:33;2.65;;;2.05;;
6979;SDS011;3530;52.832;10.680;2023-04-24T01:32:19;2.03;;;1.92;;
6979;SDS011;3530;52.832;10.680;2023-04-24T01:35:05;2.03;;;1.92;;
6979;SDS011;3530;52.832;10.680;2023-04-24T01:37:52;2.15;;;1.95;;
6979;SDS011;3530;52.832;10.680;2023-04-24T01:40:38;2.15;;;2.05;;
6979;SDS011;3530;52.832;10.680;2023-04-24T01:43:23;2.45;;;2.25;;
6979;SDS011;3530;52.832;10.680;2023-04-24T01:46:09;2.17;;;2.13;;
6979;SDS011;3530;52.832;10.680;2023-04-24T01:48:55;2.30;;;1.90;;
6979;SDS011;3530;52.832;10.680;2023-04-24T01:51:41;2.00;;;1.90;;
6979;SDS011;3530;52.832;10.680;2023-04-24T01:54:27;1.88;;;1.77;;
6979;SDS011;3530;52.832;10.680;2023-04-24T01:57:13;1.60;;;1.60;;
6979;SDS011;3530;52.832;10.680;2023-04-24T01:59:59;1.65;;;1.65;;
6979;SDS011;3530;52.832;10.680;2023-04-24T02:02:45;3.42;;;1.83;;
6979;SDS011;3530;52.832;10.680;2023-04-24T02:05:31;1.90;;;1.80;;
6979;SDS011;3530;52.832;10.680;2023-04-24T02:08:16;1.92;;;1.83;;
6979;SDS011;3530;52.832;10.680;2023-04-24T02:11:02;1.60;;;1.50;;
6979;SDS011;3530;52.832;10.680;2023-04-24T02:13:48;1.67;;;1.58;;
6979;SDS011;3530;52.832;10.680;2023-04-24T02:16:33;1.65;;;1.55;;
6979;SDS011;3530;52.832;10.680;2023-04-24T02:19:21;1.40;;;1.40;;
6979;SDS011;3530;52.832;10.680;2023-04-24T02:22:06;1.83;;;1.67;;
6979;SDS011;3530;52.832;10.680;2023-04-24T02:24:52;1.30;;;1.30;;
6979;SDS011;3530;52.832;10.680;2023-04-24T02:27:38;1.77;;;1.40;;
6979;SDS011;3530;52.832;10.680;2023-04-24T02:30:23;1.70;;;1.52;;
6979;SDS011;3530;52.832;10.680;2023-04-24T02:33:09;1.45;;;1.45;;
6979;SDS011;3530;52.832;10.680;2023-04-24T02:35:55;1.30;;;1.30;;
6979;SDS011;3530;52.832;10.680;2023-04-24T02:38:40;1.40;;;1.40;;
6979;SDS011;3530;52.832;10.680;2023-04-24T02:41:26;1.25;;;1.25;;
6979;SDS011;3530;52.832;10.680;2023-04-24T02:44:16;1.48;;;1.48;;
6979;SDS011;3530;52.832;10.680;2023-04-24T02:47:02;2.13;;;1.23;;
6979;SDS011;3530;52.832;10.680;2023-04-24T02:49:48;1.48;;;1.48;;
6979;SDS011;3530;52.832;10.680;2023-04-24T02:52:34;1.20;;;1.20;;
6979;SDS011;3530;52.832;10.680;2023-04-24T02:55:20;1.50;;;1.50;;
6979;SDS011;3530;52.832;10.680;2023-04-24T02:58:05;1.30;;;1.30;;
6979;SDS011;3530;52.832;10.680;2023-04-24T03:00:54;1.20;;;1.20;;
6979;SDS011;3530;52.832;10.680;2023-04-24T03:03:41;1.60;;;1.50;;
6979;SDS011;3530;52.832;10.680;2023-04-24T03:06:26;1.73;;;1.63;;
6979;SDS011;3530;52.832;10.680;2023-04-24T03:09:12;1.80;;;1.70;;
6979;SDS011;3530;52.832;10.680;2023-04-24T03:11:58;1.20;;;1.20;;
6979;SDS011;3530;52.832;10.680;2023-04-24T03:14:43;2.92;;;1.40;;
6979;SDS011;3530;52.832;10.680;2023-04-24T03:17:29;1.42;;;1.33;;
6979;SDS011;3530;52.832;10.680;2023-04-24T03:20:15;1.70;;;1.60;;
6979;SDS011;3530;52.832;10.680;2023-04-24T03:23:01;1.45;;;1.35;;
6979;SDS011;3530;52.832;10.680;2023-04-24T03:25:46;1.50;;;1.40;;
6979;SDS011;3530;52.832;10.680;2023-04-24T03:28:33;1.40;;;1.40;;
6979;SDS011;3530;52.832;10.680;2023-04-24T03:31:19;2.63;;;1.30;;
6979;SDS011;3530;52.832;10.680;2023-04-24T03:34:06;1.70;;;1.60;;
6979;SDS011;3530;52.832;10.680;2023-04-24T03:36:52;1.30;;;1.30;;
6979;SDS011;3530;52.832;10.680;2023-04-24T03:39:38;1.70;;;1.60;;
6979;SDS011;3530;52.832;10.680;2023-04-24T03:42:23;1.67;;;1.58;;
6979;SDS011;3530;52.832;10.680;2023-04-24T03:45:09;1.38;;;1.38;;
6979;SDS011;3530;52.832;10.680;2023-04-24T03:47:55;1.90;;;1.80;;
6979;SDS011;3530;52.832;10.680;2023-04-24T03:50:40;1.50;;;1.50;;
6979;SDS011;3530;52.832;10.680;2023-04-24T03:53:26;1.63;;;1.60;;
6979;SDS011;3530;52.832;10.680;2023-04-24T03:56:12;1.77;;;1.70;;
6979;SDS011;3530;52.832;10.680;2023-04-24T03:58:57;1.40;;;1.40;;
6979;SDS011;3530;52.832;10.680;2023-04-24T04:01:43;1.50;;;1.50;;
6979;SDS011;3530;52.832;10.680;2023-04-24T04:04:29;1.70;;;1.70;;
6979;SDS011;3530;52.832;10.680;2023-04-24T04:07:14;1.60;;;1.50;;
6979;SDS011;3530;52.832;10.680;2023-04-24T04:10:00;1.90;;;1.80;;
6979;SDS011;3530;52.832;10.680;2023-04-24T04:12:46;1.38;;;1.38;;
6979;SDS011;3530;52.832;10.680;2023-04-24T04:15:31;1.70;;;1.70;;
6979;SDS011;3530;52.832;10.680;2023-04-24T04:18:17;1.80;;;1.80;;
6979;SDS011;3530;52.832;10.680;2023-04-24T04:21:03;1.77;;;1.73;;
6979;SDS011;3530;52.832;10.680;2023-04-24T04:23:48;1.67;;;1.65;;
6979;SDS011;3530;52.832;10.680;2023-04-24T04:26:34;1.60;;;1.50;;
6979;SDS011;3530;52.832;10.680;2023-04-24T04:29:20;3.80;;;1.67;;
6979;SDS011;3530;52.832;10.680;2023-04-24T04:32:07;1.88;;;1.77;;
6979;SDS011;3530;52.832;10.680;2023-04-24T04:34:53;1.40;;;1.40;;
6979;SDS011;3530;52.832;10.680;2023-04-24T04:37:39;1.80;;;1.70;;
6979;SDS011;3530;52.832;10.680;2023-04-24T04:40:25;2.00;;;1.90;;
6979;SDS011;3530;52.832;10.680;2023-04-24T04:43:12;1.75;;;1.67;;
6979;SDS011;3530;52.832;10.680;2023-04-24T04:46:01;2.92;;;1.80;;
6979;SDS011;3530;52.832;10.680;2023-04-24T04:48:48;1.77;;;1.67;;
6979;SDS011;3530;52.832;10.680;2023-04-24T04:51:34;1.70;;;1.60;;
6979;SDS011;3530;52.832;10.680;2023-04-24T04:54:20;1.55;;;1.55;;
6979;SDS011;3530;52.832;10.680;2023-04-24T04:57:05;2.00;;;1.90;;
6979;SDS011;3530;52.832;10.680;2023-04-24T04:59:51;2.10;;;1.80;;
6979;SDS011;3530;52.832;10.680;2023-04-24T05:02:37;2.03;;;1.75;;
6979;SDS011;3530;52.832;10.680;2023-04-24T05:05:23;1.50;;;1.40;;
6979;SDS011;3530;52.832;10.680;2023-04-24T05:08:09;1.60;;;1.60;;
6979;SDS011;3530;52.832;10.680;2023-04-24T05:10:54;1.80;;;1.70;;
6979;SDS011;3530;52.832;10.680;2023-04-24T05:13:40;2.00;;;1.90;;
6979;SDS011;3530;52.832;10.680;2023-04-24T05:16:26;1.80;;;1.70;;
6979;SDS011;3530;52.832;10.680;2023-04-24T05:19:11;1.67;;;1.67;;
6979;SDS011;3530;52.832;10.680;2023-04-24T05:21:59;1.70;;;1.70;;
6979;SDS011;3530;52.832;10.680;2023-04-24T05:24:44;2.58;;;2.38;;
6979;SDS011;3530;52.832;10.680;2023-04-24T05:27:30;2.17;;;1.95;;
6979;SDS011;3530;52.832;10.680;2023-04-24T05:30:16;1.95;;;1.95;;
6979;SDS011;3530;52.832;10.680;2023-04-24T05:33:01;2.13;;;2.03;;
6979;SDS011;3530;52.832;10.680;2023-04-24T05:35:47;1.75;;;1.70;;
6979;SDS011;3530;52.832;10.680;2023-04-24T05:38:33;1.90;;;1.83;;
6979;SDS011;3530;52.832;10.680;2023-04-24T05:41:19;2.13;;;1.73;;
6979;SDS011;3530;52.832;10.680;2023-04-24T05:44:04;2.03;;;1.92;;
6979;SDS011;3530;52.832;10.680;2023-04-24T05:46:50;1.58;;;1.48;;
6979;SDS011;3530;52.832;10.680;2023-04-24T05:49:36;1.55;;;1.55;;
6979;SDS011;3530;52.832;10.680;2023-04-24T05:52:21;2.00;;;1.90;;
6979;SDS011;3530;52.832;10.680;2023-04-24T05:55:07;1.85;;;1.80;;
6979;SDS011;3530;52.832;10.680;2023-04-24T05:57:53;2.30;;;2.20;;
6979;SDS011;3530;52.832;10.680;2023-04-24T06:00:38;1.80;;;1.70;;
6979;SDS011;3530;52.832;10.680;2023-04-24T06:03:27;2.13;;;2.03;;
6979;SDS011;3530;52.832;10.680;2023-04-24T06:06:13;1.98;;;1.90;;
6979;SDS011;3530;52.832;10.680;2023-04-24T06:08:59;1.80;;;1.77;;
6979;SDS011;3530;52.832;10.680;2023-04-24T06:11:44;1.70;;;1.70;;
6979;SDS011;3530;52.832;10.680;2023-04-24T06:14:30;1.80;;;1.73;;
6979;SDS011;3530;52.832;10.680;2023-04-24T06:17:16;1.90;;;1.80;;
6979;SDS011;3530;52.832;10.680;2023-04-24T06:20:02;1.65;;;1.65;;
6979;SDS011;3530;52.832;10.680;2023-04-24T06:22:50;1.67;;;1.63;;
6979;SDS011;3530;52.832;10.680;2023-04-24T06:25:36;1.60;;;1.50;;
6979;SDS011;3530;52.832;10.680;2023-04-24T06:28:21;3.75;;;2.10;;
6979;SDS011;3530;52.832;10.680;2023-04-24T06:31:07;1.60;;;1.50;;
6979;SDS011;3530;52.832;10.680;2023-04-24T06:33:53;1.35;;;1.35;;
6979;SDS011;3530;52.832;10.680;2023-04-24T06:36:39;2.33;;;1.70;;
6979;SDS011;3530;52.832;10.680;2023-04-24T06:39:25;1.70;;;1.60;;
6979;SDS011;3530;52.832;10.680;2023-04-24T06:42:10;1.55;;;1.55;;
6979;SDS011;3530;52.832;10.680;2023-04-24T06:44:56;1.70;;;1.40;;
6979;SDS011;3530;52.832;10.680;2023-04-24T06:47:42;1.38;;;1.38;;
6979;SDS011;3530;52.832;10.680;2023-04-24T06:50:27;1.40;;;1.35;;
6979;SDS011;3530;52.832;10.680;2023-04-24T06:53:13;1.58;;;1.50;;
6979;SDS011;3530;52.832;10.680;2023-04-24T06:55:59;1.30;;;1.30;;
6979;SDS011;3530;52.832;10.680;2023-04-24T06:58:46;1.27;;;1.27;;
6979;SDS011;3530;52.832;10.680;2023-04-24T07:01:31;1.40;;;1.40;;
6979;SDS011;3530;52.832;10.680;2023-04-24T07:04:17;1.38;;;1.38;;
6979;SDS011;3530;52.832;10.680;2023-04-24T07:07:03;2.95;;;1.52;;
6979;SDS011;3530;52.832;10.680;2023-04-24T07:09:50;1.33;;;1.33;;
6979;SDS011;3530;52.832;10.680;2023-04-24T07:12:35;1.05;;;1.05;;
6979;SDS011;3530;52.832;10.680;2023-04-24T07:15:22;1.13;;;1.13;;
6979;SDS011;3530;52.832;10.680;2023-04-24T07:18:09;1.17;;;1.17;;
6979;SDS011;3530;52.832;10.680;2023-04-24T07:20:55;1.38;;;1.33;;
6979;SDS011;3530;52.832;10.680;2023-04-24T07:23:40;1.45;;;1.38;;
6979;SDS011;3530;52.832;10.680;2023-04-24T07:26:27;2.70;;;1.30;;
6979;SDS011;3530;52.832;10.680;2023-04-24T07:29:13;1.27;;;1.27;;
6979;SDS011;3530;52.832;10.680;2023-04-24T07:31:59;1.27;;;1.27;;
6979;SDS011;3530;52.832;10.680;2023-04-24T07:34:45;1.55;;;1.45;;
6979;SDS011;3530;52.832;10.680;2023-04-24T07:37:31;1.83;;;1.83;;
6979;SDS011;3530;52.832;10.680;2023-04-24T07:40:17;1.65;;;1.55;;
6979;SDS011;3530;52.832;10.680;2023-04-24T07:43:02;1.55;;;1.55;;
6979;SDS011;3530;52.832;10.680;2023-04-24T07:45:48;1.58;;;1.55;;
6979;SDS011;3530;52.832;10.680;2023-04-24T07:48:34;2.97;;;1.50;;
6979;SDS011;3530;52.832;10.680;2023-04-24T07:51:19;1.40;;;1.40;;
6979;SDS011;3530;52.832;10.680;2023-04-24T07:54:05;1.52;;;1.52;;
6979;SDS011;3530;52.832;10.680;2023-04-24T07:56:51;1.50;;;1.40;;
6979;SDS011;3530;52.832;10.680;2023-04-24T07:59:36;2.30;;;1.40;;
6979;SDS011;3530;52.832;10.680;2023-04-24T08:02:22;2.22;;;1.85;;
6979;SDS011;3530;52.832;10.680;2023-04-24T08:05:11;3.05;;;1.42;;
6979;SDS011;3530;52.832;10.680;2023-04-24T08:07:58;1.63;;;1.52;;
6979;SDS011;3530;52.832;10.680;2023-04-24T08:10:43;1.30;;;1.30;;
6979;SDS011;3530;52.832;10.680;2023-04-24T08:13:29;1.30;;;1.30;;
6979;SDS011;3530;52.832;10.680;2023-04-24T08:16:15;1.27;;;1.25;;
6979;SDS011;3530;52.832;10.680;2023-04-24T08:19:00;2.30;;;1.60;;
6979;SDS011;3530;52.832;10.680;2023-04-24T08:21:46;1.33;;;1.33;;
6979;SDS011;3530;52.832;10.680;2023-04-24T08:24:32;1.40;;;1.40;;
6979;SDS011;3530;52.832;10.680;2023-04-24T08:27:17;1.60;;;1.50;;
6979;SDS011;3530;52.832;10.680;2023-04-24T08:30:03;1.75;;;1.65;;
6979;SDS011;3530;52.832;10.680;2023-04-24T08:32:50;1.30;;;1.30;;
6979;SDS011;3530;52.832;10.680;2023-04-24T08:35:35;1.67;;;1.58;;
6979;SDS011;3530;52.832;10.680;2023-04-24T08:38:21;1.50;;;1.50;;
6979;SDS011;3530;52.832;10.680;2023-04-24T08:41:07;1.40;;;1.40;;
6979;SDS011;3530;52.832;10.680;2023-04-24T08:43:54;1.48;;;1.48;;
6979;SDS011;3530;52.832;10.680;2023-04-24T08:46:43;1.90;;;1.80;;
6979;SDS011;3530;52.832;10.680;2023-04-24T08:49:31;1.50;;;1.50;;
6979;SDS011;3530;52.832;10.680;2023-04-24T08:52:17;1.42;;;1.40;;
6979;SDS011;3530;52.832;10.680;2023-04-24T08:55:04;1.90;;;1.70;;
6979;SDS011;3530;52.832;10.680;2023-04-24T08:57:51;1.70;;;1.60;;
6979;SDS011;3530;52.832;10.680;2023-04-24T09:00:38;1.85;;;1.75;;
6979;SDS011;3530;52.832;10.680;2023-04-24T09:03:24;2.00;;;1.90;;
6979;SDS011;3530;52.832;10.680;2023-04-24T09:06:12;1.50;;;1.50;;
6979;SDS011;3530;52.832;10.680;2023-04-24T09:08:59;2.20;;;1.98;;
6979;SDS011;3530;52.832;10.680;2023-04-24T09:11:46;1.40;;;1.40;;
6979;SDS011;3530;52.832;10.680;2023-04-24T09:14:32;2.20;;;2.00;;
6979;SDS011;3530;52.832;10.680;2023-04-24T09:17:18;2.28;;;2.17;;
6979;SDS011;3530;52.832;10.680;2023-04-24T09:20:04;2.20;;;2.10;;
6979;SDS011;3530;52.832;10.680;2023-04-24T09:22:53;2.20;;;2.10;;
6979;SDS011;3530;52.832;10.680;2023-04-24T09:25:40;2.65;;;2.55;;
6979;SDS011;3530;52.832;10.680;2023-04-24T09:28:30;3.38;;;3.17;;
6979;SDS011;3530;52.832;10.680;2023-04-24T09:31:18;4.85;;;3.13;;
6979;SDS011;3530;52.832;10.680;2023-04-24T09:34:06;2.30;;;2.20;;
6979;SDS011;3530;52.832;10.680;2023-04-24T09:36:52;3.95;;;2.85;;
6979;SDS011;3530;52.832;10.680;2023-04-24T09:39:39;2.17;;;2.08;;
6979;SDS011;3530;52.832;10.680;2023-04-24T09:42:25;2.42;;;2.03;;
6979;SDS011;3530;52.832;10.680;2023-04-24T09:45:14;2.72;;;2.55;;
6979;SDS011;3530;52.832;10.680;2023-04-24T09:48:00;4.00;;;3.63;;
6979;SDS011;3530;52.832;10.680;2023-04-24T09:50:46;3.03;;;2.83;;
6979;SDS011;3530;52.832;10.680;2023-04-24T09:53:32;3.42;;;2.92;;
6979;SDS011;3530;52.832;10.680;2023-04-24T09:56:18;3.85;;;3.00;;
6979;SDS011;3530;52.832;10.680;2023-04-24T09:59:05;4.45;;;3.72;;
6979;SDS011;3530;52.832;10.680;2023-04-24T10:01:51;2.97;;;2.78;;
6979;SDS011;3530;52.832;10.680;2023-04-24T10:04:37;3.50;;;3.20;;
6979;SDS011;3530;52.832;10.680;2023-04-24T10:07:25;3.58;;;2.97;;
6979;SDS011;3530;52.832;10.680;2023-04-24T10:10:11;3.47;;;3.28;;
6979;SDS011;3530;52.832;10.680;2023-04-24T10:12:56;2.85;;;2.65;;
6979;SDS011;3530;52.832;10.680;2023-04-24T10:15:42;3.33;;;3.03;;
6979;SDS011;3530;52.832;10.680;2023-04-24T10:18:28;2.80;;;2.28;;
6979;SDS011;3530;52.832;10.680;2023-04-24T10:21:16;3.88;;;3.47;;
6979;SDS011;3530;52.832;10.680;2023-04-24T10:24:02;3.42;;;3.13;;
6979;SDS011;3530;52.832;10.680;2023-04-24T10:26:50;4.63;;;3.90;;
6979;SDS011;3530;52.832;10.680;2023-04-24T10:29:35;3.72;;;3.42;;
6979;SDS011;3530;52.832;10.680;2023-04-24T10:32:22;3.63;;;3.33;;
6979;SDS011;3530;52.832;10.680;2023-04-24T10:35:08;4.43;;;4.03;;
6979;SDS011;3530;52.832;10.680;2023-04-24T10:41:06;3.90;;;3.55;;
6979;SDS011;3530;52.832;10.680;2023-04-24T10:44:13;4.30;;;3.90;;
6979;SDS011;3530;52.832;10.680;2023-04-24T10:47:00;3.67;;;3.38;;
6979;SDS011;3530;52.832;10.680;2023-04-24T10:49:46;3.50;;;3.25;;
6979;SDS011;3530;52.832;10.680;2023-04-24T10:52:46;3.63;;;3.25;;
6979;SDS011;3530;52.832;10.680;2023-04-24T10:55:48;3.55;;;3.25;;
6979;SDS011;3530;52.832;10.680;2023-04-24T10:58:55;3.63;;;3.33;;
6979;SDS011;3530;52.832;10.680;2023-04-24T11:01:40;2.88;;;2.67;;
6979;SDS011;3530;52.832;10.680;2023-04-24T11:04:38;3.10;;;2.88;;
6979;SDS011;3530;52.832;10.680;2023-04-24T11:07:23;3.22;;;3.03;;
6979;SDS011;3530;52.832;10.680;2023-04-24T11:10:11;3.25;;;3.05;;
6979;SDS011;3530;52.832;10.680;2023-04-24T11:13:10;4.65;;;3.00;;
6979;SDS011;3530;52.832;10.680;2023-04-24T11:16:11;2.90;;;2.70;;
6979;SDS011;3530;52.832;10.680;2023-04-24T11:19:03;3.75;;;3.20;;
6979;SDS011;3530;52.832;10.680;2023-04-24T11:22:00;3.63;;;3.30;;
6979;SDS011;3530;52.832;10.680;2023-04-24T11:24:50;3.22;;;2.90;;
6979;SDS011;3530;52.832;10.680;2023-04-24T11:27:42;3.67;;;2.15;;
6979;SDS011;3530;52.832;10.680;2023-04-24T11:30:29;2.78;;;2.58;;
6979;SDS011;3530;52.832;10.680;2023-04-24T11:33:14;2.63;;;2.53;;
6979;SDS011;3530;52.832;10.680;2023-04-24T11:36:05;2.20;;;2.10;;
6979;SDS011;3530;52.832;10.680;2023-04-24T11:38:51;2.22;;;2.13;;
6979;SDS011;3530;52.832;10.680;2023-04-24T11:41:37;2.28;;;2.17;;
6979;SDS011;3530;52.832;10.680;2023-04-24T11:44:22;2.30;;;2.10;;
6979;SDS011;3530;52.832;10.680;2023-04-24T11:47:10;3.28;;;2.00;;
6979;SDS011;3530;52.832;10.680;2023-04-24T11:49:55;1.67;;;1.67;;
6979;SDS011;3530;52.832;10.680;2023-04-24T11:52:42;1.98;;;1.88;;
6979;SDS011;3530;52.832;10.680;2023-04-24T11:55:28;2.10;;;2.00;;
6979;SDS011;3530;52.832;10.680;2023-04-24T11:58:14;1.83;;;1.73;;
6979;SDS011;3530;52.832;10.680;2023-04-24T12:01:00;2.17;;;2.08;;
6979;SDS011;3530;52.832;10.680;2023-04-24T12:03:49;1.92;;;1.83;;
6979;SDS011;3530;52.832;10.680;2023-04-24T12:06:36;2.65;;;2.45;;
6979;SDS011;3530;52.832;10.680;2023-04-24T12:09:22;2.38;;;2.17;;
6979;SDS011;3530;52.832;10.680;2023-04-24T12:12:07;2.28;;;2.17;;
6979;SDS011;3530;52.832;10.680;2023-04-24T12:17:42;2.72;;;2.53;;
6979;SDS011;3530;52.832;10.680;2023-04-24T12:20:30;2.65;;;2.45;;
6979;SDS011;3530;52.832;10.680;2023-04-24T12:23:28;3.22;;;2.92;;
6979;SDS011;3530;52.832;10.680;2023-04-24T12:26:19;4.78;;;2.95;;
6979;SDS011;3530;52.832;10.680;2023-04-24T12:29:05;3.05;;;2.20;;
6979;SDS011;3530;52.832;10.680;2023-04-24T12:31:51;2.00;;;1.92;;
6979;SDS011;3530;52.832;10.680;2023-04-24T12:34:36;2.08;;;1.98;;
6979;SDS011;3530;52.832;10.680;2023-04-24T12:37:23;2.33;;;1.90;;
6979;SDS011;3530;52.832;10.680;2023-04-24T12:40:10;2.40;;;2.30;;
6979;SDS011;3530;52.832;10.680;2023-04-24T12:42:57;1.85;;;1.75;;
6979;SDS011;3530;52.832;10.680;2023-04-24T12:45:43;1.30;;;1.30;;
6979;SDS011;3530;52.832;10.680;2023-04-24T12:48:30;1.80;;;1.70;;
6979;SDS011;3530;52.832;10.680;2023-04-24T12:51:16;2.03;;;1.92;;
6979;SDS011;3530;52.832;10.680;2023-04-24T12:54:01;2.20;;;2.10;;
6979;SDS011;3530;52.832;10.680;2023-04-24T12:56:47;2.35;;;2.20;;
6979;SDS011;3530;52.832;10.680;2023-04-24T12:59:33;1.80;;;1.80;;
6979;SDS011;3530;52.832;10.680;2023-04-24T13:02:18;1.70;;;1.70;;
6979;SDS011;3530;52.832;10.680;2023-04-24T13:05:04;1.80;;;1.75;;
6979;SDS011;3530;52.832;10.680;2023-04-24T13:07:50;2.90;;;2.17;;
6979;SDS011;3530;52.832;10.680;2023-04-24T13:10:36;7.20;;;5.68;;
6979;SDS011;3530;52.832;10.680;2023-04-24T13:13:21;4.43;;;4.03;;
6979;SDS011;3530;52.832;10.680;2023-04-24T13:16:07;2.75;;;2.60;;
6979;SDS011;3530;52.832;10.680;2023-04-24T13:18:53;2.35;;;2.13;;
6979;SDS011;3530;52.832;10.680;2023-04-24T13:21:38;9.32;;;7.22;;
6979;SDS011;3530;52.832;10.680;2023-04-24T13:24:24;12.73;;;9.43;;
6979;SDS011;3530;52.832;10.680;2023-04-24T13:27:10;4.68;;;3.67;;
6979;SDS011;3530;52.832;10.680;2023-04-24T13:29:55;3.38;;;3.08;;
6979;SDS011;3530;52.832;10.680;2023-04-24T13:32:41;4.20;;;3.80;;
6979;SDS011;3530;52.832;10.680;2023-04-24T13:35:27;4.18;;;3.70;;
6979;SDS011;3530;52.832;10.680;2023-04-24T13:38:12;4.30;;;3.90;;
6979;SDS011;3530;52.832;10.680;2023-04-24T13:40:58;5.50;;;4.65;;
6979;SDS011;3530;52.832;10.680;2023-04-24T13:43:43;6.38;;;4.88;;
6979;SDS011;3530;52.832;10.680;2023-04-24T13:46:29;11.10;;;8.60;;
6979;SDS011;3530;52.832;10.680;2023-04-24T13:49:15;3.92;;;3.53;;
6979;SDS011;3530;52.832;10.680;2023-04-24T13:52:01;4.03;;;3.72;;
6979;SDS011;3530;52.832;10.680;2023-04-24T13:54:47;1.95;;;1.85;;
6979;SDS011;3530;52.832;10.680;2023-04-24T13:57:33;1.77;;;1.73;;
6979;SDS011;3530;52.832;10.680;2023-04-24T14:00:19;1.67;;;1.67;;
6979;SDS011;3530;52.832;10.680;2023-04-24T14:03:05;5.30;;;4.80;;
6979;SDS011;3530;52.832;10.680;2023-04-24T14:05:50;1.95;;;1.85;;
6979;SDS011;3530;52.832;10.680;2023-04-24T14:08:36;1.85;;;1.80;;
6979;SDS011;3530;52.832;10.680;2023-04-24T14:11:21;3.22;;;3.00;;
6979;SDS011;3530;52.832;10.680;2023-04-24T14:14:07;3.22;;;2.97;;
6979;SDS011;3530;52.832;10.680;2023-04-24T14:16:53;3.03;;;2.83;;
6979;SDS011;3530;52.832;10.680;2023-04-24T14:19:39;3.35;;;3.08;;
6979;SDS011;3530;52.832;10.680;2023-04-24T14:22:24;3.08;;;2.88;;
6979;SDS011;3530;52.832;10.680;2023-04-24T14:25:10;5.32;;;4.82;;
6979;SDS011;3530;52.832;10.680;2023-04-24T14:27:56;3.35;;;3.08;;
6979;SDS011;3530;52.832;10.680;2023-04-24T14:30:42;3.25;;;3.05;;
6979;SDS011;3530;52.832;10.680;2023-04-24T14:33:27;2.75;;;2.63;;
6979;SDS011;3530;52.832;10.680;2023-04-24T14:36:13;2.80;;;2.60;;
6979;SDS011;3530;52.832;10.680;2023-04-24T14:38:59;4.70;;;4.25;;
6979;SDS011;3530;52.832;10.680;2023-04-24T14:41:44;2.35;;;2.15;;
6979;SDS011;3530;52.832;10.680;2023-04-24T14:44:30;2.97;;;2.78;;
6979;SDS011;3530;52.832;10.680;2023-04-24T14:47:17;2.58;;;2.13;;
6979;SDS011;3530;52.832;10.680;2023-04-24T14:50:05;2.53;;;2.42;;
6979;SDS011;3530;52.832;10.680;2023-04-24T14:52:51;2.83;;;2.63;;
6979;SDS011;3530;52.832;10.680;2023-04-24T14:55:37;2.95;;;2.75;;
6979;SDS011;3530;52.832;10.680;2023-04-24T14:58:22;2.38;;;2.28;;
6979;SDS011;3530;52.832;10.680;2023-04-24T15:01:08;2.53;;;2.25;;
6979;SDS011;3530;52.832;10.680;2023-04-24T15:03:53;2.15;;;2.05;;
6979;SDS011;3530;52.832;10.680;2023-04-24T15:06:39;2.70;;;2.38;;
6979;SDS011;3530;52.832;10.680;2023-04-24T15:09:25;3.75;;;2.70;;
6979;SDS011;3530;52.832;10.680;2023-04-24T15:12:11;10.27;;;6.40;;
6979;SDS011;3530;52.832;10.680;2023-04-24T15:14:57;4.05;;;3.70;;
6979;SDS011;3530;52.832;10.680;2023-04-24T15:17:44;7.38;;;5.97;;
6979;SDS011;3530;52.832;10.680;2023-04-24T15:20:29;6.53;;;5.70;;
6979;SDS011;3530;52.832;10.680;2023-04-24T15:23:15;9.52;;;6.82;;
6979;SDS011;3530;52.832;10.680;2023-04-24T15:26:01;3.67;;;3.38;;
6979;SDS011;3530;52.832;10.680;2023-04-24T15:28:47;4.13;;;3.80;;
6979;SDS011;3530;52.832;10.680;2023-04-24T15:31:32;3.72;;;3.45;;
6979;SDS011;3530;52.832;10.680;2023-04-24T15:34:18;3.50;;;3.20;;
6979;SDS011;3530;52.832;10.680;2023-04-24T15:37:04;2.55;;;2.35;;
6979;SDS011;3530;52.832;10.680;2023-04-24T15:39:49;1.55;;;1.50;;
6979;SDS011;3530;52.832;10.680;2023-04-24T15:42:35;1.95;;;1.88;;
6979;SDS011;3530;52.832;10.680;2023-04-24T15:45:22;1.88;;;1.83;;
6979;SDS011;3530;52.832;10.680;2023-04-24T15:48:07;1.40;;;1.40;;
6979;SDS011;3530;52.832;10.680;2023-04-24T15:50:53;1.70;;;1.60;;
6979;SDS011;3530;52.832;10.680;2023-04-24T15:53:39;1.30;;;1.30;;
6979;SDS011;3530;52.832;10.680;2023-04-24T15:56:25;1.70;;;1.60;;
6979;SDS011;3530;52.832;10.680;2023-04-24T15:59:12;2.08;;;1.33;;
6979;SDS011;3530;52.832;10.680;2023-04-24T16:01:57;1.20;;;1.20;;
6979;SDS011;3530;52.832;10.680;2023-04-24T16:04:44;1.48;;;1.38;;
6979;SDS011;3530;52.832;10.680;2023-04-24T16:07:30;1.15;;;1.15;;
6979;SDS011;3530;52.832;10.680;2023-04-24T16:10:16;1.40;;;1.40;;
6979;SDS011;3530;52.832;10.680;2023-04-24T16:13:02;3.63;;;1.58;;
6979;SDS011;3530;52.832;10.680;2023-04-24T16:15:49;1.63;;;1.63;;
6979;SDS011;3530;52.832;10.680;2023-04-24T16:18:36;1.02;;;1.02;;
6979;SDS011;3530;52.832;10.680;2023-04-24T16:21:21;1.58;;;1.58;;
6979;SDS011;3530;52.832;10.680;2023-04-24T16:24:07;1.42;;;1.40;;
6979;SDS011;3530;52.832;10.680;2023-04-24T16:26:53;1.48;;;1.45;;
6979;SDS011;3530;52.832;10.680;2023-04-24T16:29:40;1.42;;;1.42;;
6979;SDS011;3530;52.832;10.680;2023-04-24T16:32:25;2.05;;;1.42;;
6979;SDS011;3530;52.832;10.680;2023-04-24T16:35:11;1.38;;;1.38;;
6979;SDS011;3530;52.832;10.680;2023-04-24T16:37:57;1.70;;;1.60;;
6979;SDS011;3530;52.832;10.680;2023-04-24T16:40:43;1.55;;;1.55;;
6979;SDS011;3530;52.832;10.680;2023-04-24T16:43:28;1.50;;;1.50;;
6979;SDS011;3530;52.832;10.680;2023-04-24T16:46:14;1.38;;;1.35;;
6979;SDS011;3530;52.832;10.680;2023-04-24T16:49:00;1.60;;;1.60;;
6979;SDS011;3530;52.832;10.680;2023-04-24T16:51:45;6.32;;;2.45;;
6979;SDS011;3530;52.832;10.680;2023-04-24T16:54:31;1.30;;;1.30;;
6979;SDS011;3530;52.832;10.680;2023-04-24T16:57:19;1.80;;;1.70;;
6979;SDS011;3530;52.832;10.680;2023-04-24T17:00:05;1.70;;;1.70;;
6979;SDS011;3530;52.832;10.680;2023-04-24T17:02:52;1.65;;;1.60;;